createdAt,value
2022-08-24T00:00:53.239Z,99402.88
2022-08-24T00:03:21.583Z,99406.02
2022-08-24T00:05:49.826Z,99404.80
2022-08-24T00:08:19.217Z,99400.42
2022-08-24T00:10:47.842Z,99399.02
2022-08-24T00:13:16.867Z,99399.43
2022-08-24T00:15:45.248Z,99401.59
2022-08-24T00:18:16.698Z,99400.00
2022-08-24T00:20:45.797Z,99402.58
2022-08-24T00:23:14.841Z,99404.55
2022-08-24T00:25:43.594Z,99402.12
2022-08-24T00:28:11.620Z,99403.09
2022-08-24T00:30:39.765Z,99399.58
2022-08-24T00:33:08.537Z,99402.46
2022-08-24T00:35:36.806Z,99399.99
2022-08-24T00:38:07.889Z,99398.70
2022-08-24T00:40:46.331Z,99395.08
2022-08-24T00:43:22.649Z,99389.02
2022-08-24T00:46:22.132Z,99389.84
2022-08-24T00:48:57.851Z,99388.28
2022-08-24T00:51:45.904Z,99385.55
2022-08-24T00:54:18.165Z,99384.27
2022-08-24T00:56:54.276Z,99382.93
2022-08-24T00:59:26.745Z,99382.96
2022-08-24T01:01:56.901Z,99377.91
2022-08-24T01:04:39.889Z,99375.00
2022-08-24T01:07:07.749Z,99377.05
2022-08-24T01:09:36.642Z,99382.88
2022-08-24T01:12:05.565Z,99383.88
2022-08-24T01:14:36.280Z,99385.58
2022-08-24T01:17:35.101Z,99389.36
2022-08-24T01:20:09.197Z,99388.54
2022-08-24T01:23:16.089Z,99384.10
2022-08-24T01:25:45.091Z,99380.86
2022-08-24T01:28:27.229Z,99376.98
2022-08-24T01:30:55.716Z,99371.82
2022-08-24T01:33:34.052Z,99367.27
2022-08-24T01:36:18.799Z,99363.17
2022-08-24T01:38:54.443Z,99360.06
2022-08-24T01:41:28.771Z,99357.79
2022-08-24T01:43:59.592Z,99354.96
2022-08-24T01:46:31.223Z,99357.81
2022-08-24T01:48:59.471Z,99358.48
2022-08-24T01:51:32.508Z,99359.02
2022-08-24T01:54:04.922Z,99357.47
2022-08-24T01:56:34.273Z,99358.65
2022-08-24T01:59:05.042Z,99364.45
2022-08-24T02:01:40.135Z,99364.34
2022-08-24T02:04:11.473Z,99363.69
2022-08-24T02:06:48.503Z,99370.91
2022-08-24T02:09:17.424Z,99373.66
2022-08-24T02:11:45.533Z,99376.20
2022-08-24T02:14:15.680Z,99374.89
2022-08-24T02:16:43.558Z,99380.09
2022-08-24T02:19:12.440Z,99383.70
2022-08-24T02:21:40.768Z,99384.94
2022-08-24T02:24:09.897Z,99381.08
2022-08-24T02:26:38.672Z,99383.25
2022-08-24T02:29:09.669Z,99381.48
2022-08-24T02:31:38.541Z,99383.05
2022-08-24T02:34:07.298Z,99388.50
2022-08-24T02:36:35.611Z,99390.59
2022-08-24T02:39:06.137Z,99391.58
2022-08-24T02:41:35.941Z,99397.03
2022-08-24T02:44:05.153Z,99399.16
2022-08-24T02:46:34.524Z,99395.62
2022-08-24T02:49:10.609Z,99402.35
2022-08-24T02:51:45.704Z,99400.60
2022-08-24T02:54:19.582Z,99396.45
2022-08-24T02:56:49.585Z,99397.96
2022-08-24T02:59:18.587Z,99397.04
2022-08-24T03:01:50.093Z,99394.73
2022-08-24T03:04:22.721Z,99394.77
2022-08-24T03:06:53.508Z,99396.53
2022-08-24T03:09:23.412Z,99400.95
2022-08-24T03:11:54.714Z,99401.09
2022-08-24T03:14:23.091Z,99399.55
2022-08-24T03:16:51.010Z,99400.96
2022-08-24T03:19:19.560Z,99403.92
2022-08-24T03:21:48.049Z,99405.98
2022-08-24T03:24:16.381Z,99403.08
2022-08-24T03:26:45.659Z,99408.86
2022-08-24T03:29:15.925Z,99411.91
2022-08-24T03:31:45.714Z,99415.50
2022-08-24T03:34:16.427Z,99417.64
2022-08-24T03:36:47.682Z,99420.41
2022-08-24T03:39:18.713Z,99419.59
2022-08-24T03:41:50.645Z,99426.05
2022-08-24T03:44:23.093Z,99428.20
2022-08-24T03:46:52.907Z,99435.12
2022-08-24T03:49:23.016Z,99437.23
2022-08-24T03:51:53.176Z,99439.56
2022-08-24T03:54:25.209Z,99447.15
2022-08-24T03:56:53.719Z,99444.06
2022-08-24T03:59:22.236Z,99440.52
2022-08-24T04:01:53.247Z,99445.05
2022-08-24T04:04:23.061Z,99445.15
2022-08-24T04:06:50.965Z,99441.05
2022-08-24T04:09:19.584Z,99443.06
2022-08-24T04:11:48.759Z,99443.25
2022-08-24T04:14:26.787Z,99443.60
2022-08-24T04:17:04.886Z,99446.59
2022-08-24T04:19:37.462Z,99442.71
2022-08-24T04:22:08.627Z,99445.61
2022-08-24T04:24:37.729Z,99448.67
2022-08-24T04:27:06.589Z,99447.34
2022-08-24T04:29:36.019Z,99450.61
2022-08-24T04:32:04.909Z,99450.30
2022-08-24T04:34:33.937Z,99453.21
2022-08-24T04:37:02.372Z,99449.66
2022-08-24T04:39:30.896Z,99450.66
2022-08-24T04:42:23.738Z,99450.61
2022-08-24T04:44:56.067Z,99446.95
2022-08-24T04:47:28.691Z,99446.93
2022-08-24T04:49:57.813Z,99447.96
2022-08-24T04:52:28.434Z,99447.86
2022-08-24T04:54:56.358Z,99452.90
2022-08-24T04:57:26.641Z,99449.13
2022-08-24T04:59:58.358Z,99451.15
2022-08-24T05:02:27.097Z,99453.56
2022-08-24T05:04:58.501Z,99457.02
2022-08-24T05:07:26.903Z,99458.11
2022-08-24T05:09:55.007Z,99457.21
2022-08-24T05:12:24.842Z,99457.04
2022-08-24T05:15:00.138Z,99461.83
2022-08-24T05:17:29.641Z,99455.96
2022-08-24T05:19:58.943Z,99456.60
2022-08-24T05:22:27.244Z,99453.02
2022-08-24T05:24:55.372Z,99452.58
2022-08-24T05:27:25.232Z,99452.73
2022-08-24T05:29:57.986Z,99453.35
2022-08-24T05:32:26.899Z,99453.27
2022-08-24T05:34:56.694Z,99453.11
2022-08-24T05:37:26.619Z,99450.51
2022-08-24T05:40:12.383Z,99460.05
2022-08-24T05:42:42.438Z,99459.94
2022-08-24T05:45:12.990Z,99454.27
2022-08-24T05:47:42.193Z,99450.69
2022-08-24T05:50:24.002Z,99447.21
2022-08-24T05:52:51.859Z,99441.64
2022-08-24T05:55:20.355Z,99438.45
2022-08-24T05:57:48.210Z,99443.35
2022-08-24T06:00:25.377Z,99439.88
2022-08-24T06:02:53.763Z,99439.52
2022-08-24T06:05:22.591Z,99440.67
2022-08-24T06:07:50.705Z,99441.97
2022-08-24T06:10:36.484Z,99445.92
2022-08-24T06:13:08.843Z,99449.02
2022-08-24T06:15:38.947Z,99444.70
2022-08-24T06:18:08.564Z,99446.39
2022-08-24T06:20:43.513Z,99448.89
2022-08-24T06:23:14.443Z,99457.66
2022-08-24T06:26:06.633Z,99460.04
2022-08-24T06:28:36.627Z,99463.68
2022-08-24T06:31:07.358Z,99460.38
2022-08-24T06:33:35.910Z,99456.41
2022-08-24T06:36:04.518Z,99453.36
2022-08-24T06:38:36.023Z,99453.25
2022-08-24T06:41:07.495Z,99455.66
2022-08-24T06:43:37.202Z,99452.66
2022-08-24T06:46:12.838Z,99451.86
2022-08-24T06:48:47.515Z,99455.00
2022-08-24T06:51:18.651Z,99457.46
2022-08-24T06:53:49.973Z,99460.96
2022-08-24T06:56:20.037Z,99462.86
2022-08-24T06:58:48.420Z,99467.84
2022-08-24T07:01:23.241Z,99468.58
2022-08-24T07:03:52.940Z,99473.08
2022-08-24T07:06:41.564Z,99473.10
2022-08-24T07:09:11.048Z,99476.86
2022-08-24T07:11:41.632Z,99477.48
2022-08-24T07:14:12.065Z,99476.94
2022-08-24T07:16:40.657Z,99480.00
2022-08-24T07:19:10.302Z,99478.65
2022-08-24T07:21:38.209Z,99477.24
2022-08-24T07:24:07.368Z,99470.54
2022-08-24T07:26:39.719Z,99470.64
2022-08-24T07:29:36.780Z,99468.95
2022-08-24T07:32:07.725Z,99470.17
2022-08-24T07:34:37.820Z,99473.58
2022-08-24T07:37:07.956Z,99472.17
2022-08-24T07:39:38.631Z,99477.20
2022-08-24T07:42:13.787Z,99477.23
2022-08-24T07:44:43.820Z,99478.33
2022-08-24T07:47:36.906Z,99486.77
2022-08-24T07:50:03.311Z,99494.34
2022-08-24T07:52:38.194Z,99496.19
2022-08-24T07:55:07.144Z,99501.65
2022-08-24T07:57:40.563Z,99508.07
2022-08-24T08:00:15.332Z,99505.25
2022-08-24T08:02:46.848Z,99503.24
2022-08-24T08:05:21.646Z,99500.95
2022-08-24T08:07:52.604Z,99503.92
2022-08-24T08:10:23.487Z,99507.36
2022-08-24T08:12:52.620Z,99506.63
2022-08-24T08:15:24.105Z,99509.61
2022-08-24T08:18:00.689Z,99509.45
2022-08-24T08:20:32.209Z,99513.59
2022-08-24T08:23:19.426Z,99515.63
2022-08-24T08:26:16.540Z,99517.91
2022-08-24T08:29:00.368Z,99519.44
2022-08-24T08:31:28.874Z,99515.16
2022-08-24T08:33:57.129Z,99513.95
2022-08-24T08:36:26.106Z,99509.42
2022-08-24T08:38:56.586Z,99515.61
2022-08-24T08:41:58.854Z,99523.71
2022-08-24T08:44:40.532Z,99524.53
2022-08-24T08:47:21.019Z,99523.48
2022-08-24T08:50:14.445Z,99531.51
2022-08-24T08:53:22.590Z,99522.62
2022-08-24T08:56:18.149Z,99521.14
2022-08-24T08:59:25.757Z,99525.93
2022-08-24T09:02:23.215Z,99525.15
2022-08-24T09:05:35.744Z,99528.10
2022-08-24T09:08:52.274Z,99527.91
2022-08-24T09:11:35.817Z,99529.42
2022-08-24T09:14:27.697Z,99530.30
2022-08-24T09:17:22.322Z,99531.16
2022-08-24T09:20:14.418Z,99533.23
2022-08-24T09:22:48.175Z,99537.79
2022-08-24T09:25:26.677Z,99543.49
2022-08-24T09:28:43.797Z,99540.52
2022-08-24T09:31:39.519Z,99540.98
2022-08-24T09:34:25.714Z,99543.73
2022-08-24T09:37:22.858Z,99546.77
2022-08-24T09:40:09.775Z,99543.52
2022-08-24T09:43:18.026Z,99546.63
2022-08-24T09:45:58.660Z,99550.29
2022-08-24T09:48:34.773Z,99556.15
2022-08-24T09:51:26.959Z,99558.87
2022-08-24T09:54:27.429Z,99551.36
2022-08-24T09:57:50.367Z,99551.14
2022-08-24T10:00:30.864Z,99548.47
2022-08-24T10:03:22.824Z,99551.85
2022-08-24T10:06:30.717Z,99550.17
2022-08-24T10:09:24.095Z,99550.27
2022-08-24T10:12:07.732Z,99550.02
2022-08-24T10:15:11.123Z,99547.48
2022-08-24T10:18:02.909Z,99546.44
2022-08-24T10:20:52.089Z,99549.88
2022-08-24T10:23:52.553Z,99553.70
2022-08-24T10:26:37.160Z,99561.15
2022-08-24T10:29:42.931Z,99560.94
2022-08-24T10:32:47.836Z,99558.67
2022-08-24T10:35:28.648Z,99561.88
2022-08-24T10:38:38.517Z,99564.45
2022-08-24T10:41:49.452Z,99564.48
2022-08-24T10:44:28.735Z,99562.48
2022-08-24T10:47:21.127Z,99563.83
2022-08-24T10:50:07.608Z,99561.87
2022-08-24T10:53:17.623Z,99563.14
2022-08-24T10:55:51.854Z,99563.34
2022-08-24T10:58:39.242Z,99562.66
2022-08-24T11:01:21.143Z,99562.83
2022-08-24T11:04:02.846Z,99566.92
2022-08-24T11:07:05.720Z,99566.38
2022-08-24T11:09:51.740Z,99570.05
2022-08-24T11:12:33.854Z,99572.92
2022-08-24T11:15:11.114Z,99566.55
2022-08-24T11:17:58.013Z,99563.45
2022-08-24T11:20:51.081Z,99564.89
2022-08-24T11:23:35.393Z,99563.69
2022-08-24T11:26:21.385Z,99566.33
2022-08-24T11:29:04.463Z,99569.21
2022-08-24T11:31:39.913Z,99565.92
2022-08-24T11:34:15.326Z,99563.01
2022-08-24T11:36:46.220Z,99564.15
2022-08-24T11:39:33.821Z,99561.36
2022-08-24T11:42:30.209Z,99562.39
2022-08-24T11:45:08.079Z,99569.38
2022-08-24T11:47:50.877Z,99565.15
2022-08-24T11:50:44.591Z,99568.95
2022-08-24T11:53:24.343Z,99573.02
2022-08-24T11:56:01.286Z,99561.77
2022-08-24T11:58:45.741Z,99561.45
2022-08-24T12:01:45.824Z,99552.19
2022-08-24T12:04:46.078Z,99554.86
2022-08-24T12:07:33.075Z,99563.64
2022-08-24T12:10:50.407Z,99568.80
2022-08-24T12:13:33.738Z,99568.15
2022-08-24T12:16:38.675Z,99561.29
2022-08-24T12:19:15.783Z,99564.81
2022-08-24T12:21:51.053Z,99570.30
2022-08-24T12:24:39.153Z,99572.67
2022-08-24T12:27:16.902Z,99569.29
2022-08-24T12:30:05.780Z,99572.13
2022-08-24T12:32:47.966Z,99573.41
2022-08-24T12:35:34.377Z,99568.95
2022-08-24T12:38:27.085Z,99568.17
2022-08-24T12:41:24.110Z,99567.83
2022-08-24T12:43:58.832Z,99571.72
2022-08-24T12:46:27.364Z,99573.52
2022-08-24T12:49:28.268Z,99573.23
2022-08-24T12:52:21.474Z,99568.06
2022-08-24T12:55:21.056Z,99570.75
2022-08-24T12:58:54.061Z,99570.06
2022-08-24T13:01:11.660Z,99573.67
2022-08-24T13:03:43.354Z,99569.58
2022-08-24T13:06:37.170Z,99570.34
2022-08-24T13:09:31.115Z,99566.02
2022-08-24T13:12:38.185Z,99558.95
2022-08-24T13:15:45.400Z,99560.93
2022-08-24T13:18:22.036Z,99560.20
2022-08-24T13:20:58.910Z,99564.91
2022-08-24T13:23:27.486Z,99565.30
2022-08-24T13:26:27.807Z,99563.16
2022-08-24T13:28:58.293Z,99566.89
2022-08-24T13:31:28.839Z,99570.24
2022-08-24T13:34:20.993Z,99573.10
2022-08-24T13:37:02.253Z,99581.56
2022-08-24T13:40:17.832Z,99582.27
2022-08-24T13:43:18.454Z,99585.93
2022-08-24T13:46:16.210Z,99583.84
2022-08-24T13:49:00.566Z,99585.08
2022-08-24T13:51:52.168Z,99588.21
2022-08-24T13:55:00.301Z,99590.89
2022-08-24T13:57:52.424Z,99588.13
2022-08-24T14:01:04.046Z,99592.10
2022-08-24T14:03:52.064Z,99595.10
2022-08-24T14:06:35.225Z,99591.55
2022-08-24T14:09:16.313Z,99584.48
2022-08-24T14:12:07.350Z,99585.02
2022-08-24T14:15:00.362Z,99579.52
2022-08-24T14:17:55.194Z,99577.01
2022-08-24T14:20:58.350Z,99573.23
2022-08-24T14:23:45.010Z,99569.85
2022-08-24T14:26:34.850Z,99571.52
2022-08-24T14:29:21.661Z,99565.02
2022-08-24T14:32:00.251Z,99566.80
2022-08-24T14:34:58.386Z,99572.38
2022-08-24T14:37:48.222Z,99564.93
2022-08-24T14:40:37.436Z,99565.06
2022-08-24T14:43:11.599Z,99561.53
2022-08-24T14:46:04.395Z,99562.23
2022-08-24T14:48:44.769Z,99556.29
2022-08-24T14:51:54.370Z,99549.81
2022-08-24T14:54:36.021Z,99547.08
2022-08-24T14:57:19.660Z,99544.94
2022-08-24T15:00:04.356Z,99548.44
2022-08-24T15:03:08.567Z,99544.20
2022-08-24T15:06:28.607Z,99543.44
2022-08-24T15:09:24.537Z,99535.63
2022-08-24T15:12:21.138Z,99531.66
2022-08-24T15:14:56.258Z,99531.34
2022-08-24T15:17:36.105Z,99529.89
2022-08-24T15:20:17.270Z,99524.70
2022-08-24T15:23:10.528Z,99528.88
2022-08-24T15:25:48.428Z,99526.64
2022-08-24T15:28:32.552Z,99534.79
2022-08-24T15:31:02.639Z,99531.66
2022-08-24T15:33:35.054Z,99523.64
2022-08-24T15:36:08.588Z,99520.72
2022-08-24T15:38:40.003Z,99521.66
2022-08-24T15:41:26.697Z,99522.22
2022-08-24T15:44:09.901Z,99519.46
2022-08-24T15:46:43.519Z,99523.50
2022-08-24T15:49:51.722Z,99522.70
2022-08-24T15:52:45.084Z,99514.41
2022-08-24T15:55:29.310Z,99511.83
2022-08-24T15:57:59.039Z,99512.11
2022-08-24T16:00:55.715Z,99513.44
2022-08-24T16:03:26.839Z,99512.63
2022-08-24T16:05:56.672Z,99506.90
2022-08-24T16:08:24.747Z,99505.95
2022-08-24T16:10:57.141Z,99506.17
2022-08-24T16:13:33.545Z,99505.55
2022-08-24T16:16:15.494Z,99511.62
2022-08-24T16:18:59.624Z,99512.92
2022-08-24T16:21:37.811Z,99515.17
2022-08-24T16:24:40.189Z,99513.34
2022-08-24T16:27:16.955Z,99515.73
2022-08-24T16:29:59.364Z,99520.82
2022-08-24T16:32:38.350Z,99524.54
2022-08-24T16:35:20.889Z,99528.88
2022-08-24T16:37:52.932Z,99528.66
2022-08-24T16:40:23.062Z,99530.73
2022-08-24T16:42:51.137Z,99530.74
2022-08-24T16:45:22.195Z,99532.34
2022-08-24T16:47:50.566Z,99532.39
2022-08-24T16:50:22.000Z,99531.03
2022-08-24T16:52:56.447Z,99532.35
2022-08-24T16:55:25.030Z,99534.27
2022-08-24T16:57:53.355Z,99536.48
2022-08-24T17:00:22.342Z,99535.31
2022-08-24T17:02:50.221Z,99539.30
2022-08-24T17:05:18.311Z,99543.64
2022-08-24T17:07:47.218Z,99550.20
2022-08-24T17:10:19.306Z,99553.73
2022-08-24T17:12:53.110Z,99553.73
2022-08-24T17:15:21.920Z,99547.82
2022-08-24T17:18:05.019Z,99546.27
2022-08-24T17:20:33.758Z,99545.36
2022-08-24T17:23:02.852Z,99544.38
2022-08-24T17:25:31.767Z,99548.05
2022-08-24T17:28:00.972Z,99546.48
2022-08-24T17:30:30.906Z,99543.91
2022-08-24T17:32:59.996Z,99546.87
2022-08-24T17:35:28.173Z,99551.29
2022-08-24T17:37:57.168Z,99557.75
2022-08-24T17:40:26.608Z,99559.32
2022-08-24T17:42:54.951Z,99556.17
2022-08-24T17:45:30.795Z,99555.48
2022-08-24T17:48:13.441Z,99558.30
2022-08-24T17:50:47.186Z,99562.64
2022-08-24T17:53:15.044Z,99563.35
2022-08-24T17:55:43.298Z,99563.20
2022-08-24T17:58:11.408Z,99567.96
2022-08-24T18:00:40.172Z,99565.86
2022-08-24T18:03:13.382Z,99573.52
2022-08-24T18:05:50.041Z,99581.32
2022-08-24T18:08:18.239Z,99585.50
2022-08-24T18:10:47.797Z,99589.44
2022-08-24T18:13:16.379Z,99584.34
2022-08-24T18:15:44.330Z,99580.96
2022-08-24T18:18:13.220Z,99581.13
2022-08-24T18:20:41.928Z,99585.94
2022-08-24T18:23:12.042Z,99584.25
2022-08-24T18:25:47.649Z,99581.55
2022-08-24T18:28:17.306Z,99583.61
2022-08-24T18:30:46.326Z,99585.80
2022-08-24T18:33:15.055Z,99588.96
2022-08-24T18:35:43.606Z,99587.98
2022-08-24T18:38:14.408Z,99586.32
2022-08-24T18:40:52.619Z,99586.17
2022-08-24T18:43:25.187Z,99590.73
2022-08-24T18:45:54.583Z,99592.64
2022-08-24T18:48:36.449Z,99595.04
2022-08-24T18:51:04.554Z,99589.03
2022-08-24T18:53:35.655Z,99589.95
2022-08-24T18:56:10.623Z,99592.66
2022-08-24T18:58:40.643Z,99592.41
2022-08-24T19:01:08.795Z,99590.88
2022-08-24T19:03:39.455Z,99591.85
2022-08-24T19:06:08.204Z,99590.27
2022-08-24T19:08:36.960Z,99588.34
2022-08-24T19:11:05.912Z,99592.01
2022-08-24T19:13:33.998Z,99594.80
2022-08-24T19:16:03.895Z,99588.21
2022-08-24T19:18:32.144Z,99585.95
2022-08-24T19:21:00.052Z,99586.96
2022-08-24T19:23:31.255Z,99584.59
2022-08-24T19:26:03.416Z,99584.58
2022-08-24T19:28:33.295Z,99584.52
2022-08-24T19:31:05.374Z,99585.41
2022-08-24T19:33:38.108Z,99582.50
2022-08-24T19:36:06.709Z,99587.83
2022-08-24T19:38:34.845Z,99590.57
2022-08-24T19:41:11.784Z,99590.08
2022-08-24T19:44:00.364Z,99591.84
2022-08-24T19:46:28.498Z,99589.23
2022-08-24T19:48:56.390Z,99589.83
2022-08-24T19:51:24.769Z,99584.50
2022-08-24T19:53:52.974Z,99586.21
2022-08-24T19:56:21.954Z,99582.27
2022-08-24T19:58:50.458Z,99581.54
2022-08-24T20:01:22.062Z,99584.77
2022-08-24T20:03:50.868Z,99586.35
2022-08-24T20:06:24.041Z,99589.21
2022-08-24T20:08:53.064Z,99594.88
2022-08-24T20:11:24.906Z,99600.49
2022-08-24T20:13:54.757Z,99601.11
2022-08-24T20:16:26.697Z,99601.73
2022-08-24T20:18:54.800Z,99607.70
2022-08-24T20:21:27.081Z,99607.83
2022-08-24T20:24:00.703Z,99612.09
2022-08-24T20:26:33.196Z,99609.61
2022-08-24T20:29:01.060Z,99609.79
2022-08-24T20:31:29.027Z,99609.22
2022-08-24T20:33:57.549Z,99611.02
2022-08-24T20:36:29.589Z,99605.30
2022-08-24T20:39:00.038Z,99599.21
2022-08-24T20:41:31.058Z,99601.67
2022-08-24T20:43:59.540Z,99601.11
2022-08-24T20:46:28.787Z,99599.98
2022-08-24T20:48:58.215Z,99603.63
2022-08-24T20:51:26.729Z,99600.83
2022-08-24T20:53:56.250Z,99599.66
2022-08-24T20:56:32.728Z,99596.23
2022-08-24T20:59:09.265Z,99593.48
2022-08-24T21:01:38.633Z,99592.39
2022-08-24T21:04:14.772Z,99597.11
2022-08-24T21:06:47.204Z,99597.73
2022-08-24T21:09:21.302Z,99593.80
2022-08-24T21:11:49.603Z,99592.23
2022-08-24T21:14:20.098Z,99591.93
2022-08-24T21:16:48.536Z,99589.05
2022-08-24T21:19:17.735Z,99589.31
2022-08-24T21:21:47.138Z,99586.75
2022-08-24T21:24:16.969Z,99585.23
2022-08-24T21:26:45.530Z,99585.25
2022-08-24T21:29:14.007Z,99584.54
2022-08-24T21:32:02.217Z,99580.55
2022-08-24T21:34:41.917Z,99580.90
2022-08-24T21:37:16.961Z,99582.46
2022-08-24T21:39:47.117Z,99580.25
2022-08-24T21:42:16.761Z,99577.89
2022-08-24T21:44:45.112Z,99576.34
2022-08-24T21:47:13.170Z,99572.23
2022-08-24T21:49:46.754Z,99571.32
2022-08-24T21:52:15.004Z,99570.71
2022-08-24T21:54:42.888Z,99569.14
2022-08-24T21:57:11.485Z,99568.69
2022-08-24T21:59:39.732Z,99563.79
2022-08-24T22:02:07.941Z,99555.75
2022-08-24T22:04:38.631Z,99552.02
2022-08-24T22:07:07.683Z,99552.73
2022-08-24T22:09:36.137Z,99549.27
2022-08-24T22:12:09.245Z,99548.16
2022-08-24T22:14:37.127Z,99545.19
2022-08-24T22:17:05.542Z,99544.50
2022-08-24T22:19:34.060Z,99543.45
2022-08-24T22:22:01.811Z,99540.62
2022-08-24T22:24:29.632Z,99531.85
2022-08-24T22:26:57.426Z,99528.98
2022-08-24T22:29:25.778Z,99529.14
2022-08-24T22:31:53.623Z,99527.84
2022-08-24T22:34:21.855Z,99528.55
2022-08-24T22:36:50.016Z,99523.89
2022-08-24T22:39:18.981Z,99521.48
2022-08-24T22:41:46.909Z,99524.98
2022-08-24T22:44:21.581Z,99521.29
2022-08-24T22:46:51.432Z,99520.45
2022-08-24T22:49:21.637Z,99522.54
2022-08-24T22:51:50.217Z,99520.86
2022-08-24T22:54:22.610Z,99519.05
2022-08-24T22:56:53.129Z,99516.55
2022-08-24T22:59:27.828Z,99518.83
2022-08-24T23:01:58.791Z,99516.94
2022-08-24T23:04:32.076Z,99522.00
2022-08-24T23:07:01.311Z,99523.98
2022-08-24T23:09:31.965Z,99521.67
2022-08-24T23:12:18.786Z,99515.16
2022-08-24T23:14:46.898Z,99512.75
2022-08-24T23:17:14.782Z,99513.42
2022-08-24T23:20:01.731Z,99512.05
2022-08-24T23:22:33.604Z,99507.62
2022-08-24T23:25:02.774Z,99503.77
2022-08-24T23:27:38.394Z,99496.98
2022-08-24T23:30:09.780Z,99499.63
2022-08-24T23:32:38.116Z,99501.88
2022-08-24T23:35:06.695Z,99501.80
2022-08-24T23:37:34.705Z,99502.22
2022-08-24T23:40:03.160Z,99498.20
2022-08-24T23:42:31.085Z,99501.15
2022-08-24T23:44:59.107Z,99502.46
2022-08-24T23:47:28.710Z,99501.89
2022-08-24T23:49:57.025Z,99501.42
2022-08-24T23:52:28.705Z,99508.77
2022-08-24T23:55:06.082Z,99511.88
2022-08-24T23:57:46.918Z,99508.40
